Time,TemperatureF,DewpointF,PressureIn,WindDirection,WindDirectionDegrees,WindSpeedMPH,WindSpeedGustMPH,Humidity,HourlyPrecipIn,Conditions,Clouds,dailyrainin,SolarRadiationWatts/m^2,SoftwareType,DateUTC
2013-08-22 00:22:00,56.0,53.0,-100.00,SSW,194,0.0,4.0,90,0.00,,,0.00,0.000000,,2013-08-22 07:22:00,
2013-08-22 00:32:00,56.0,53.0,-100.00,SSW,194,0.0,4.0,90,0.00,,,0.00,0.000000,,2013-08-22 07:32:00,
2013-08-22 00:42:00,56.0,53.0,-100.00,SSW,194,0.0,4.0,90,0.00,,,0.00,0.000000,,2013-08-22 07:42:00,
2013-08-22 00:50:00,56.0,53.0,-100.00,SE,129,1.0,3.0,90,0.00,,,0.00,0.000000,,2013-08-22 07:50:00,
2013-08-22 01:22:00,56.0,53.0,-100.00,SE,129,1.0,3.0,90,0.00,,,0.00,0.000000,,2013-08-22 08:22:00,
2013-08-22 01:33:00,56.0,53.0,-100.00,SE,129,1.0,3.0,90,0.00,,,0.00,0.000000,,2013-08-22 08:33:00,
2013-08-22 01:43:00,56.0,53.0,-100.00,SE,129,1.0,3.0,90,0.00,,,0.00,0.000000,,2013-08-22 08:43:00,
2013-08-22 01:50:00,55.0,52.0,-100.00,SSE,153,2.0,5.0,91,0.00,,,-99.99,0.000000,,2013-08-22 08:50:00,
2013-08-22 02:22:00,55.0,52.0,-100.00,SSE,153,2.0,5.0,91,0.00,,,-99.99,0.000000,,2013-08-22 09:22:00,
2013-08-22 02:33:00,55.0,52.0,-100.00,SSE,153,2.0,5.0,91,0.00,,,-99.99,0.000000,,2013-08-22 09:33:00,
2013-08-22 02:43:00,55.0,52.0,-100.00,SSE,153,2.0,5.0,91,0.00,,,-99.99,0.000000,,2013-08-22 09:43:00,
2013-08-22 03:22:00,54.0,52.0,-100.00,WNW,286,1.0,3.0,93,0.00,,,0.00,0.000000,,2013-08-22 10:22:00,
2013-08-22 03:32:00,54.0,52.0,-100.00,WNW,286,1.0,3.0,93,0.00,,,0.00,0.000000,,2013-08-22 10:32:00,
2013-08-22 03:42:00,54.0,52.0,-100.00,WNW,286,1.0,3.0,93,0.00,,,0.00,0.000000,,2013-08-22 10:42:00,
2013-08-22 04:50:00,55.0,54.0,-100.00,WNW,297,3.0,6.0,95,0.00,,,0.00,0.000000,,2013-08-22 11:50:00,
2013-08-22 05:32:00,55.0,54.0,-100.00,WNW,297,3.0,6.0,95,0.00,,,0.00,0.000000,,2013-08-22 12:32:00,
2013-08-22 05:42:00,55.0,54.0,-100.00,WNW,297,3.0,6.0,95,0.00,,,0.00,0.000000,,2013-08-22 12:42:00,
2013-08-22 05:50:00,55.0,54.0,-100.00,WSW,248,3.0,5.0,96,0.00,,,0.00,0.000000,,2013-08-22 12:50:00,
2013-08-22 06:22:00,55.0,54.0,-100.00,WSW,248,3.0,5.0,96,0.00,,,0.00,0.000000,,2013-08-22 13:22:00,
2013-08-22 06:32:00,55.0,54.0,-100.00,WSW,248,3.0,5.0,96,0.00,,,0.00,0.000000,,2013-08-22 13:32:00,
2013-08-22 06:42:00,55.0,54.0,-100.00,WSW,248,3.0,5.0,96,0.00,,,0.00,0.000000,,2013-08-22 13:42:00,
2013-08-22 06:50:00,54.0,53.0,-100.00,WSW,256,2.0,5.0,97,0.00,,,0.00,1.000000,,2013-08-22 13:50:00,
2013-08-22 07:22:00,54.0,53.0,-100.00,WSW,256,2.0,5.0,97,0.00,,,0.00,1.000000,,2013-08-22 14:22:00,
2013-08-22 07:33:00,54.0,53.0,-100.00,WSW,256,2.0,5.0,97,0.00,,,0.00,1.000000,,2013-08-22 14:33:00,
2013-08-22 07:42:00,54.0,53.0,-100.00,WSW,256,2.0,5.0,97,0.00,,,0.00,1.000000,,2013-08-22 14:42:00,
2013-08-22 07:50:00,55.0,54.0,-100.00,NW,317,5.0,9.0,96,0.00,,,0.00,13.000000,,2013-08-22 14:50:00,
2013-08-22 08:22:00,55.0,54.0,-100.00,NW,317,5.0,9.0,96,0.00,,,0.00,13.000000,,2013-08-22 15:22:00,
2013-08-22 08:33:00,55.0,54.0,-100.00,NW,317,5.0,9.0,96,0.00,,,0.00,13.000000,,2013-08-22 15:33:00,
2013-08-22 08:43:00,55.0,54.0,-100.00,NW,317,5.0,9.0,96,0.00,,,0.00,13.000000,,2013-08-22 15:43:00,
2013-08-22 08:50:00,55.0,54.0,-100.00,West,275,5.0,7.0,97,0.00,,,0.00,51.000000,,2013-08-22 15:50:00,
2013-08-22 09:24:00,55.0,54.0,-100.00,West,275,5.0,7.0,97,0.00,,,0.00,51.000000,,2013-08-22 16:24:00,
2013-08-22 09:34:00,55.0,54.0,-100.00,West,275,5.0,7.0,97,0.00,,,0.00,51.000000,,2013-08-22 16:34:00,
2013-08-22 09:43:00,55.0,54.0,-100.00,West,275,5.0,7.0,97,0.00,,,0.00,51.000000,,2013-08-22 16:43:00,
2013-08-22 09:50:00,57.0,54.0,-100.00,SE,131,4.0,8.0,90,0.00,,,0.00,131.000000,,2013-08-22 16:50:00,
2013-08-22 10:24:00,57.0,54.0,-100.00,SE,131,4.0,8.0,90,0.00,,,0.00,131.000000,,2013-08-22 17:24:00,
2013-08-22 10:33:00,57.0,54.0,-100.00,SE,131,4.0,8.0,90,0.00,,,0.00,131.000000,,2013-08-22 17:33:00,
2013-08-22 10:42:00,57.0,54.0,-100.00,SE,131,4.0,8.0,90,0.00,,,0.00,131.000000,,2013-08-22 17:42:00,
2013-08-22 10:50:00,62.0,55.0,-100.00,NW,311,7.0,11.0,79,0.00,,,0.00,497.000000,,2013-08-22 17:50:00,
2013-08-22 11:21:00,62.0,55.0,-100.00,NW,311,7.0,11.0,79,0.00,,,0.00,497.000000,,2013-08-22 18:21:00,
2013-08-22 11:32:00,62.0,55.0,-100.00,NW,311,7.0,11.0,79,0.00,,,0.00,497.000000,,2013-08-22 18:32:00,
2013-08-22 11:43:00,62.0,55.0,-100.00,NW,311,7.0,11.0,79,0.00,,,0.00,497.000000,,2013-08-22 18:43:00,
2013-08-22 11:50:00,67.0,57.0,-100.00,NW,320,5.0,11.0,70,0.00,,,0.00,763.000000,,2013-08-22 18:50:00,
2013-08-22 12:22:00,67.0,57.0,-100.00,NW,320,5.0,11.0,70,0.00,,,0.00,763.000000,,2013-08-22 19:22:00,
2013-08-22 12:32:00,67.0,57.0,-100.00,NW,320,5.0,11.0,70,0.00,,,0.00,763.000000,,2013-08-22 19:32:00,
2013-08-22 12:42:00,67.0,57.0,-100.00,NW,320,5.0,11.0,70,0.00,,,0.00,763.000000,,2013-08-22 19:42:00,
2013-08-22 12:50:00,72.0,56.0,-100.00,North,352,6.0,11.0,57,0.00,,,0.00,843.000000,,2013-08-22 19:50:00,
2013-08-22 13:23:00,72.0,56.0,-100.00,North,352,6.0,11.0,57,0.00,,,0.00,843.000000,,2013-08-22 20:23:00,
2013-08-22 13:32:00,72.0,56.0,-100.00,North,352,6.0,11.0,57,0.00,,,0.00,843.000000,,2013-08-22 20:32:00,
2013-08-22 13:42:00,72.0,56.0,-100.00,North,352,6.0,11.0,57,0.00,,,0.00,843.000000,,2013-08-22 20:42:00,
2013-08-22 13:50:00,76.0,56.0,-100.00,NW,314,8.0,13.0,50,0.00,,,0.00,870.000000,,2013-08-22 20:50:00,
2013-08-22 14:22:00,76.0,56.0,-100.00,NW,314,8.0,13.0,50,0.00,,,0.00,870.000000,,2013-08-22 21:22:00,
2013-08-22 14:34:00,76.0,56.0,-100.00,NW,314,8.0,13.0,50,0.00,,,0.00,870.000000,,2013-08-22 21:34:00,
2013-08-22 14:44:00,76.0,56.0,-100.00,NW,314,8.0,13.0,50,0.00,,,0.00,870.000000,,2013-08-22 21:44:00,
2013-08-22 14:50:00,78.0,56.0,-100.00,NW,315,12.0,17.0,47,0.00,,,0.00,838.000000,,2013-08-22 21:50:00,
2013-08-22 15:24:00,78.0,56.0,-100.00,NW,315,12.0,17.0,47,0.00,,,0.00,838.000000,,2013-08-22 22:24:00,
2013-08-22 15:34:00,78.0,56.0,-100.00,NW,315,12.0,17.0,47,0.00,,,0.00,838.000000,,2013-08-22 22:34:00,
2013-08-22 15:42:00,78.0,56.0,-100.00,NW,315,12.0,17.0,47,0.00,,,0.00,838.000000,,2013-08-22 22:42:00,
2013-08-22 15:50:00,77.0,56.0,-100.00,NW,308,12.0,17.0,49,0.00,,,0.00,751.000000,,2013-08-22 22:50:00,
2013-08-22 16:22:00,77.0,56.0,-100.00,NW,308,12.0,17.0,49,0.00,,,0.00,751.000000,,2013-08-22 23:22:00,
2013-08-22 16:33:00,77.0,56.0,-100.00,NW,308,12.0,17.0,49,0.00,,,0.00,751.000000,,2013-08-22 23:33:00,
2013-08-22 16:42:00,77.0,56.0,-100.00,NW,308,12.0,17.0,49,0.00,,,0.00,751.000000,,2013-08-22 23:42:00,
2013-08-22 16:50:00,74.0,54.0,-100.00,NW,325,14.0,19.0,49,0.00,,,0.00,616.000000,,2013-08-22 23:50:00,
2013-08-22 17:23:00,74.0,54.0,-100.00,NW,325,14.0,19.0,49,0.00,,,0.00,616.000000,,2013-08-23 00:23:00,
2013-08-22 17:33:00,74.0,54.0,-100.00,NW,325,14.0,19.0,49,0.00,,,0.00,616.000000,,2013-08-23 00:33:00,
2013-08-22 17:42:00,74.0,54.0,-100.00,NW,325,14.0,19.0,49,0.00,,,0.00,616.000000,,2013-08-23 00:42:00,
2013-08-22 17:50:00,73.0,53.0,-100.00,NNW,328,11.0,17.0,50,0.00,,,0.00,450.000000,,2013-08-23 00:50:00,
2013-08-22 18:21:00,73.0,53.0,-100.00,NNW,328,11.0,17.0,50,0.00,,,0.00,450.000000,,2013-08-23 01:21:00,
2013-08-22 18:33:00,73.0,53.0,-100.00,NNW,328,11.0,17.0,50,0.00,,,0.00,450.000000,,2013-08-23 01:33:00,
2013-08-22 18:41:00,73.0,53.0,-100.00,NNW,328,11.0,17.0,50,0.00,,,0.00,450.000000,,2013-08-23 01:41:00,
2013-08-22 18:50:00,69.0,52.0,-100.00,NNW,337,13.0,19.0,55,0.00,,,0.00,263.000000,,2013-08-23 01:50:00,
2013-08-22 19:22:00,69.0,52.0,-100.00,NNW,337,13.0,19.0,55,0.00,,,0.00,263.000000,,2013-08-23 02:22:00,
2013-08-22 19:32:00,69.0,52.0,-100.00,NNW,337,13.0,19.0,55,0.00,,,0.00,263.000000,,2013-08-23 02:32:00,
2013-08-22 19:42:00,69.0,52.0,-100.00,NNW,337,13.0,19.0,55,0.00,,,0.00,263.000000,,2013-08-23 02:42:00,
2013-08-22 19:50:00,64.0,50.0,-100.00,NNW,335,10.0,16.0,61,0.00,,,0.00,81.000000,,2013-08-23 02:50:00,
2013-08-22 20:22:00,64.0,50.0,-100.00,NNW,335,10.0,16.0,61,0.00,,,0.00,81.000000,,2013-08-23 03:22:00,
2013-08-22 20:34:00,64.0,50.0,-100.00,NNW,335,10.0,16.0,61,0.00,,,0.00,81.000000,,2013-08-23 03:34:00,
2013-08-22 20:44:00,64.0,50.0,-100.00,NNW,335,10.0,16.0,61,0.00,,,0.00,81.000000,,2013-08-23 03:44:00,
2013-08-22 20:50:00,60.0,52.0,-100.00,NNW,346,7.0,15.0,74,0.00,,,-99.99,2.000000,,2013-08-23 03:50:00,
2013-08-22 21:24:00,60.0,52.0,-100.00,NNW,346,7.0,15.0,74,0.00,,,-99.99,2.000000,,2013-08-23 04:24:00,
2013-08-22 21:34:00,60.0,52.0,-100.00,NNW,346,7.0,15.0,74,0.00,,,-99.99,2.000000,,2013-08-23 04:34:00,
2013-08-22 21:43:00,60.0,52.0,-100.00,NNW,346,7.0,15.0,74,0.00,,,-99.99,2.000000,,2013-08-23 04:43:00,
2013-08-22 21:50:00,57.0,52.0,-100.00,NNW,331,11.0,15.0,83,0.00,,,0.00,0.000000,,2013-08-23 04:50:00,
2013-08-22 22:22:00,57.0,52.0,-100.00,NNW,331,11.0,15.0,83,0.00,,,0.00,0.000000,,2013-08-23 05:22:00,
2013-08-22 22:34:00,57.0,52.0,-100.00,NNW,331,11.0,15.0,83,0.00,,,0.00,0.000000,,2013-08-23 05:34:00,
2013-08-22 22:42:00,57.0,52.0,-100.00,NNW,331,11.0,15.0,83,0.00,,,0.00,0.000000,,2013-08-23 05:42:00,
2013-08-22 22:50:00,56.0,52.0,-100.00,NNW,341,8.0,17.0,88,0.00,,,0.00,0.000000,,2013-08-23 05:50:00,
2013-08-22 23:21:00,56.0,52.0,-100.00,NNW,341,8.0,17.0,88,0.00,,,0.00,0.000000,,2013-08-23 06:21:00,
2013-08-22 23:32:00,56.0,52.0,-100.00,NNW,341,8.0,17.0,88,0.00,,,0.00,0.000000,,2013-08-23 06:32:00,
2013-08-22 23:41:00,56.0,52.0,-100.00,NNW,341,8.0,17.0,88,0.00,,,0.00,0.000000,,2013-08-23 06:41:00,
2013-08-22 23:50:00,56.0,52.0,-100.00,NW,325,8.0,11.0,88,0.00,,,0.00,0.000000,,2013-08-23 06:50:00,